Time;durP1;ratioP1;P1;durP2;ratioP2;P2;SDS_P1;SDS_P2;PMS_P1;PMS_P2;Temp;Humidity;BMP_temperature;BMP_pressure;BME280_temperature;BME280_humidity;BME280_pressure;Samples;Min_cycle;Max_cycle;Signal;HPM_P1;HPM_P2
2021/03/23 00:00:49;;;;;;;34.65;18.17;;;;;;;2.44;64.26;100465.56;1693319;83;26506;-75
2021/03/23 00:03:24;;;;;;;34.35;17.25;;;;;;;2.43;64.29;100463.45;1692011;83;25816;-75
2021/03/23 00:05:50;;;;;;;33.42;17.50;;;;;;;2.44;64.33;100465.56;1691049;83;26355;-75
2021/03/23 00:08:34;;;;;;;33.28;18.30;;;;;;;2.45;64.35;100467.19;1692372;83;25735;-75
2021/03/23 00:11:11;;;;;;;40.73;17.17;;;;;;;2.46;64.35;100472.73;1691339;83;25769;-75
2021/03/23 00:13:40;;;;;;;29.52;15.15;;;;;;;2.46;64.50;100475.30;1688017;83;25683;-75
2021/03/23 00:16:08;;;;;;;34.15;17.42;;;;;;;2.44;64.46;100470.24;1689801;83;25779;-76
2021/03/23 00:18:35;;;;;;;34.05;18.10;;;;;;;2.43;64.45;100469.90;1690528;83;26653;-75
2021/03/23 00:21:02;;;;;;;33.30;17.95;;;;;;;2.43;64.35;100472.48;1690038;83;25393;-76
2021/03/23 00:23:28;;;;;;;30.17;18.30;;;;;;;2.44;64.35;100470.24;1674164;84;25827;-75
2021/03/23 00:25:54;;;;;;;36.13;18.07;;;;;;;2.47;64.57;100465.33;1673008;84;25869;-76
2021/03/23 00:28:23;;;;;;;33.85;18.30;;;;;;;2.49;64.53;100467.81;1673535;85;25873;-75
2021/03/23 00:30:49;;;;;;;37.05;17.92;;;;;;;2.48;64.62;100466.97;1663125;84;25777;-75
2021/03/23 00:33:16;;;;;;;34.25;17.35;;;;;;;2.46;64.46;100458.54;1692645;83;25961;-75
2021/03/23 00:35:42;;;;;;;31.97;17.27;;;;;;;2.46;64.41;100460.30;1704454;83;25789;-76
2021/03/23 00:38:10;;;;;;;28.50;15.95;;;;;;;2.43;64.44;100454.42;1705885;83;25740;-75
2021/03/23 00:40:37;;;;;;;33.92;17.25;;;;;;;2.47;64.45;100462.75;1693868;83;26059;-77
2021/03/23 00:43:06;;;;;;;29.65;17.25;;;;;;;2.48;64.53;100457.13;1692909;83;26481;-76
2021/03/23 00:45:36;;;;;;;33.02;16.55;;;;;;;2.49;64.49;100454.45;1692198;83;26580;-74
2021/03/23 00:48:03;;;;;;;35.48;18.52;;;;;;;2.49;64.48;100451.87;1691383;83;25883;-74
2021/03/23 00:50:29;;;;;;;28.85;15.35;;;;;;;2.49;64.53;100453.16;1691010;83;25890;-74
2021/03/23 00:52:55;;;;;;;35.50;17.50;;;;;;;2.51;64.52;100447.43;1701275;82;25764;-74
2021/03/23 00:55:22;;;;;;;33.15;16.67;;;;;;;2.51;64.57;100446.58;1704627;82;25735;-74
2021/03/23 00:57:48;;;;;;;30.52;17.07;;;;;;;2.53;64.63;100449.41;1670309;84;25860;-74
2021/03/23 01:00:17;;;;;;;32.88;16.57;;;;;;;2.57;64.69;100447.45;1702842;82;26237;-74
2021/03/23 01:02:45;;;;;;;34.00;17.00;;;;;;;2.59;64.66;100452.00;1700593;83;25910;-74
2021/03/23 01:05:14;;;;;;;32.03;16.62;;;;;;;2.61;64.61;100448.38;1688474;84;25939;-74
2021/03/23 01:07:41;;;;;;;28.45;15.80;;;;;;;2.58;64.35;100443.45;1689437;84;25836;-74
2021/03/23 01:10:10;;;;;;;29.92;16.07;;;;;;;2.58;64.67;100446.03;1689951;83;26331;-74
2021/03/23 01:12:36;;;;;;;30.88;17.10;;;;;;;2.59;64.61;100433.50;1689244;83;25756;-74
2021/03/23 01:15:07;;;;;;;33.35;16.45;;;;;;;2.60;64.59;100443.35;1688375;84;25810;-74
2021/03/23 01:17:33;;;;;;;28.73;15.38;;;;;;;2.62;64.58;100441.48;1727876;82;25695;-74
2021/03/23 01:19:59;;;;;;;26.17;13.85;;;;;;;2.61;64.50;100441.94;1727780;81;25755;-75
2021/03/23 01:22:26;;;;;;;31.55;15.63;;;;;;;2.61;64.49;100440.64;1728939;81;25728;-74
2021/03/23 01:24:52;;;;;;;29.48;14.38;;;;;;;2.63;64.54;100434.91;1729112;82;25361;-74
2021/03/23 01:27:18;;;;;;;31.48;16.52;;;;;;;2.63;64.52;100449.10;1728081;82;25773;-74
2021/03/23 01:29:44;;;;;;;28.20;16.25;;;;;;;2.63;64.43;100433.63;1727922;81;25814;-74
2021/03/23 01:32:10;;;;;;;29.37;15.33;;;;;;;2.64;64.53;100441.70;1726865;81;35362;-74
2021/03/23 01:34:37;;;;;;;31.05;16.52;;;;;;;2.65;64.55;100443.37;1676569;83;25814;-74
2021/03/23 01:39:51;;;;;;;32.13;16.30;;;;;;;2.63;64.57;100428.46;1661529;84;25909;-74
2021/03/23 01:42:20;;;;;;;32.73;16.30;;;;;;;2.60;64.61;100421.42;1729835;81;25727;-74
2021/03/23 01:44:50;;;;;;;30.82;16.30;;;;;;;2.59;64.68;100424.91;1703407;83;26618;-74
2021/03/23 01:47:16;;;;;;;30.45;14.50;;;;;;;2.58;64.74;100429.73;1694855;83;25827;-74
2021/03/23 01:49:46;;;;;;;28.40;15.65;;;;;;;2.56;64.78;100423.37;1698595;83;25776;-74
2021/03/23 01:52:16;;;;;;;31.00;14.95;;;;;;;2.56;64.84;100425.14;1701966;83;26390;-74
2021/03/23 01:54:50;;;;;;;29.02;16.00;;;;;;;2.55;64.93;100423.04;1709688;82;25805;-75
2021/03/23 01:57:16;;;;;;;30.85;14.93;;;;;;;2.54;64.89;100427.85;1721322;82;25434;-75
2021/03/23 01:59:47;;;;;;;23.02;13.45;;;;;;;2.55;64.93;100424.80;1694499;82;25314;-75
2021/03/23 02:02:14;;;;;;;25.72;13.75;;;;;;;2.43;64.90;100418.78;1718005;82;25774;-75
2021/03/23 02:04:40;;;;;;;31.07;14.50;;;;;;;2.43;64.90;100418.78;1706744;81;26927;-75
2021/03/23 02:07:07;;;;;;;26.48;15.50;;;;;;;2.56;64.95;100432.88;1686723;83;26074;-75
2021/03/23 02:09:36;;;;;;;26.45;14.28;;;;;;;2.44;64.97;100412.20;1686790;84;25968;-75
2021/03/23 02:12:07;;;;;;;26.82;15.28;;;;;;;2.55;64.92;100429.48;1697077;81;25951;-75
2021/03/23 02:14:38;;;;;;;27.42;14.58;;;;;;;2.54;64.93;100428.33;1721045;81;25907;-75
2021/03/23 02:17:22;;;;;;;30.02;14.33;;;;;;;2.53;64.93;100429.23;1731377;79;28007;-75
2021/03/23 02:20:14;;;;;;;26.33;12.88;;;;;;;2.51;64.98;100431.10;1772057;79;25684;-74
2021/03/23 02:22:45;;;;;;;25.90;13.65;;;;;;;2.47;64.99;100432.27;1741326;79;25746;-76
2021/03/23 02:25:20;;;;;;;26.62;13.38;;;;;;;2.48;65.07;100436.48;1734508;81;26266;-75
2021/03/23 02:27:46;;;;;;;26.00;12.65;;;;;;;2.44;65.33;100430.27;1731042;80;25764;-75
2021/03/23 02:30:24;;;;;;;22.82;13.25;;;;;;;2.46;65.09;100438.38;1736847;79;26307;-74
2021/03/23 02:32:50;;;;;;;23.05;13.05;;;;;;;2.47;65.05;100441.30;1718558;79;25722;-75
2021/03/23 02:35:16;;;;;;;23.75;13.05;;;;;;;2.47;65.05;100441.30;1739418;79;25851;-75
2021/03/23 02:37:43;;;;;;;24.95;13.55;;;;;;;2.48;65.12;100441.17;1738386;80;25810;-75
2021/03/23 02:40:10;;;;;;;25.62;13.98;;;;;;;2.48;65.13;100439.88;1708104;81;25859;-75
2021/03/23 02:42:36;;;;;;;25.52;13.25;;;;;;;2.46;65.15;100437.09;1718075;81;26444;-75
2021/03/23 02:45:03;;;;;;;25.20;14.50;;;;;;;2.48;65.11;100439.06;1721314;81;25899;-75
2021/03/23 02:47:29;;;;;;;22.82;11.85;;;;;;;2.49;65.04;100445.89;1734212;79;26274;-75
2021/03/23 02:49:55;;;;;;;22.35;11.08;;;;;;;2.48;64.85;100441.64;1725401;79;25728;-75
2021/03/23 02:52:21;;;;;;;23.62;12.58;;;;;;;2.47;64.74;100442.59;1775721;80;25276;-76
2021/03/23 02:54:48;;;;;;;27.85;13.20;;;;;;;2.44;64.78;100441.05;1784998;79;26344;-75
2021/03/23 02:57:14;;;;;;;22.45;11.22;;;;;;;2.43;64.68;100438.95;1759080;80;25707;-75
2021/03/23 02:59:40;;;;;;;21.00;11.68;;;;;;;2.32;64.74;100422.13;1761197;79;26289;-75
2021/03/23 03:02:07;;;;;;;22.50;12.05;;;;;;;2.46;64.64;100446.94;1770947;79;25779;-75
2021/03/23 03:04:34;;;;;;;17.73;9.55;;;;;;;2.46;64.54;100446.11;1767445;80;25856;-75
2021/03/23 03:07:01;;;;;;;20.45;10.93;;;;;;;2.44;64.36;100440.58;1753891;80;26366;-75
2021/03/23 03:09:27;;;;;;;21.75;11.00;;;;;;;2.45;64.46;100433.66;1755891;79;25460;-75
2021/03/23 03:11:53;;;;;;;23.07;11.48;;;;;;;2.47;64.46;100440.83;1777296;79;26603;-75
2021/03/23 03:14:20;;;;;;;19.10;11.43;;;;;;;2.47;64.37;100437.43;1776579;80;25899;-75
2021/03/23 03:16:47;;;;;;;22.13;10.80;;;;;;;2.46;64.37;100437.91;1776232;79;25695;-75
2021/03/23 03:19:15;;;;;;;22.25;11.57;;;;;;;2.46;64.54;100438.38;1763751;79;25803;-75
2021/03/23 03:21:42;;;;;;;21.12;11.10;;;;;;;2.47;64.47;100433.56;1777198;80;25674;-72
2021/03/23 03:24:09;;;;;;;20.80;11.43;;;;;;;2.48;64.53;100431.33;1776796;79;25792;-72
2021/03/23 03:26:35;;;;;;;21.12;11.30;;;;;;;2.48;64.42;100436.48;1775618;79;25679;-72
2021/03/23 03:29:02;;;;;;;25.95;12.30;;;;;;;2.48;64.40;100432.14;1775993;80;25784;-72
2021/03/23 03:31:31;;;;;;;22.75;11.08;;;;;;;2.47;64.41;100434.38;1776583;79;25731;-72
2021/03/23 03:34:01;;;;;;;22.00;10.08;;;;;;;2.44;64.45;100428.97;1777183;79;25945;-72
2021/03/23 03:36:30;;;;;;;18.07;10.58;;;;;;;2.46;64.37;100420.32;1779025;79;25756;-72
2021/03/23 03:38:57;;;;;;;23.67;11.80;;;;;;;2.46;64.40;100433.22;1775924;80;25785;-72
2021/03/23 03:41:24;;;;;;;22.82;11.48;;;;;;;2.46;64.50;100425.48;1770250;80;25784;-72
2021/03/23 03:43:51;;;;;;;19.73;10.15;;;;;;;2.44;64.43;100430.27;1761813;80;26374;-72
2021/03/23 03:46:18;;;;;;;23.62;10.95;;;;;;;2.43;64.46;100424.76;1762537;80;25626;-72
2021/03/23 03:48:44;;;;;;;22.27;10.03;;;;;;;2.40;64.50;100427.56;1765396;79;25612;-72
2021/03/23 03:51:11;;;;;;;20.40;10.50;;;;;;;2.40;64.58;100428.00;1732194;80;25828;-72
2021/03/23 03:53:37;;;;;;;20.97;10.08;;;;;;;2.43;64.70;100435.08;1753301;80;25766;-72
2021/03/23 03:56:05;;;;;;;19.20;10.28;;;;;;;2.43;64.71;100430.39;1755461;80;25740;-72
2021/03/23 03:58:31;;;;;;;19.67;10.38;;;;;;;2.42;64.72;100435.99;1768380;79;25919;-72
2021/03/23 04:00:57;;;;;;;21.45;10.03;;;;;;;2.43;64.73;100436.84;1771031;79;25651;-73
2021/03/23 04:03:29;;;;;;;24.85;10.50;;;;;;;2.44;64.79;100446.21;1753189;80;26381;-73
2021/03/23 04:05:58;;;;;;;19.15;9.60;;;;;;;2.43;64.75;100444.58;1721387;83;25761;-72
2021/03/23 04:08:28;;;;;;;22.07;11.57;;;;;;;2.42;64.82;100445.49;1710398;82;26450;-72
2021/03/23 04:10:57;;;;;;;24.82;11.35;;;;;;;2.41;64.93;100445.97;1711995;82;26063;-72
2021/03/23 04:13:25;;;;;;;23.20;10.65;;;;;;;2.43;65.05;100449.73;1735389;82;25835;-72
2021/03/23 04:15:52;;;;;;;20.72;10.95;;;;;;;2.42;64.97;100451.94;1734692;82;26450;-72
2021/03/23 04:18:23;;;;;;;23.15;10.98;;;;;;;2.41;65.05;100454.17;1735402;82;25844;-73
2021/03/23 04:20:51;;;;;;;19.60;9.58;;;;;;;2.38;65.12;100455.22;1702217;83;27173;-72
2021/03/23 04:23:22;;;;;;;21.82;9.83;;;;;;;2.36;65.24;100452.39;1721018;83;25757;-72
2021/03/23 04:25:50;;;;;;;17.00;9.53;;;;;;;2.33;65.36;100456.01;1720274;81;25943;-73
2021/03/23 04:28:17;;;;;;;18.05;9.68;;;;;;;2.32;65.44;100456.10;1723988;81;25780;-73
2021/03/23 04:30:43;;;;;;;17.27;8.95;;;;;;;2.32;65.53;100459.53;1714481;83;26026;-72
2021/03/23 04:33:10;;;;;;;19.85;10.48;;;;;;;2.32;65.50;100456.95;1740265;81;25733;-73
2021/03/23 04:35:58;;;;;;;20.35;10.75;;;;;;;2.10;65.52;100418.13;1727278;81;25849;-72
2021/03/23 04:38:32;;;;;;;20.23;11.22;;;;;;;2.33;65.70;100459.06;1703333;82;26344;-71
2021/03/23 04:41:02;;;;;;;34.50;15.85;;;;;;;2.36;65.74;100462.23;1705978;82;25706;-72
2021/03/23 04:43:33;;;;;;;40.88;21.70;;;;;;;2.35;65.66;100454.15;1694368;83;25787;-71
2021/03/23 04:45:59;;;;;;;41.63;21.48;;;;;;;2.31;65.67;100452.70;1693699;83;25755;-72
2021/03/23 04:48:26;;;;;;;54.85;24.80;;;;;;;2.30;65.69;100445.09;1712811;82;25790;-72
2021/03/23 04:50:54;;;;;;;51.48;24.63;;;;;;;2.28;65.79;100446.48;1710337;82;25761;-72
2021/03/23 04:53:28;;;;;;;45.48;22.60;;;;;;;2.28;65.82;100449.53;1708448;83;26466;-72
2021/03/23 04:55:56;;;;;;;42.83;21.05;;;;;;;2.25;65.94;100448.47;1710909;83;25933;-72
2021/03/23 04:58:24;;;;;;;35.73;17.73;;;;;;;2.22;65.86;100444.34;1709415;83;25699;-72
2021/03/23 05:00:51;;;;;;;36.23;17.92;;;;;;;2.23;66.16;100458.88;1688286;83;26392;-72
2021/03/23 05:03:21;;;;;;;27.95;13.80;;;;;;;2.13;66.13;100437.28;1708678;82;25979;-72
2021/03/23 05:05:54;;;;;;;26.45;13.20;;;;;;;2.13;66.00;100448.41;1719560;81;25878;-72
2021/03/23 05:08:22;;;;;;;24.27;11.57;;;;;;;2.13;66.00;100448.41;1714129;82;25772;-72
2021/03/23 05:10:49;;;;;;;21.70;10.53;;;;;;;2.12;66.22;100456.23;1713905;82;25739;-72
2021/03/23 05:13:15;;;;;;;23.45;11.88;;;;;;;2.12;66.22;100456.23;1713413;82;25729;-72
2021/03/23 05:15:42;;;;;;;19.45;9.98;;;;;;;2.22;66.07;100472.23;1714171;83;25848;-72
2021/03/23 05:18:08;;;;;;;23.90;10.82;;;;;;;2.22;66.07;100472.23;1714450;82;25605;-72
2021/03/23 05:20:34;;;;;;;22.22;11.50;;;;;;;2.23;66.30;100466.14;1714154;83;25756;-72
2021/03/23 05:23:01;;;;;;;22.90;11.45;;;;;;;2.25;66.33;100472.49;1714101;82;25891;-72
2021/03/23 05:25:27;;;;;;;18.23;10.20;;;;;;;2.32;66.40;100472.87;1713204;82;25895;-72
2021/03/23 05:27:53;;;;;;;19.23;10.90;;;;;;;2.33;66.32;100471.48;1713715;82;25849;-73
2021/03/23 05:30:21;;;;;;;19.92;11.20;;;;;;;2.35;66.29;100479.12;1715304;82;25322;-73
2021/03/23 05:32:47;;;;;;;20.70;10.88;;;;;;;2.36;66.30;100473.84;1713884;82;25725;-72
2021/03/23 05:35:15;;;;;;;25.27;11.70;;;;;;;2.32;66.26;100463.40;1713478;82;26604;-75
2021/03/23 05:37:42;;;;;;;23.18;11.28;;;;;;;2.41;66.11;100479.97;1714769;82;25839;-75
2021/03/23 05:40:11;;;;;;;18.37;10.43;;;;;;;2.40;66.25;100483.45;1716735;82;25723;-75
2021/03/23 05:42:41;;;;;;;19.90;10.53;;;;;;;2.40;66.25;100484.31;1722921;81;25780;-75
2021/03/23 05:45:36;;;;;;;21.60;11.85;;;;;;;2.43;66.19;100487.14;1702774;83;25807;-76
2021/03/23 05:48:20;;;;;;;21.93;11.18;;;;;;;2.46;66.30;100489.97;1701434;80;26393;-76
2021/03/23 05:51:20;;;;;;;23.27;12.43;;;;;;;2.47;66.16;100492.89;1717430;82;25828;-75
2021/03/23 05:54:13;;;;;;;24.90;10.95;;;;;;;2.49;66.12;100487.16;1716677;80;25787;-75
2021/03/23 05:56:42;;;;;;;20.77;10.53;;;;;;;2.51;66.13;100489.14;1716289;82;25879;-76
2021/03/23 05:59:26;;;;;;;18.82;11.40;;;;;;;2.52;66.10;100490.34;1717945;82;25788;-76
2021/03/23 06:01:58;;;;;;;16.55;9.45;;;;;;;2.53;66.09;100491.97;1714348;82;26033;-76
2021/03/23 06:05:02;;;;;;;19.50;9.33;;;;;;;2.56;66.17;100499.48;1718711;81;25738;-76
2021/03/23 06:07:36;;;;;;;19.90;9.85;;;;;;;2.59;66.10;100504.45;1716107;82;25805;-75
2021/03/23 06:09:59;;;;;;;20.25;10.28;;;;;;;2.63;66.09;100499.89;1691550;82;25751;-72
2021/03/23 06:12:36;;;;;;;21.37;10.95;;;;;;;2.65;66.06;100506.59;1674963;84;25778;-73
2021/03/23 06:15:38;;;;;;;21.40;11.45;;;;;;;2.68;66.08;100509.89;1689479;83;26581;-73
2021/03/23 06:18:31;;;;;;;25.05;11.95;;;;;;;2.70;66.14;100506.70;1689271;83;25708;-72
2021/03/23 06:21:10;;;;;;;22.05;12.10;;;;;;;2.72;66.03;100510.83;1674338;84;25340;-72
2021/03/23 06:24:04;;;;;;;22.57;9.57;;;;;;;2.75;66.14;100513.19;1675709;84;25768;-72
2021/03/23 06:27:00;;;;;;;20.43;10.65;;;;;;;2.74;66.06;100514.13;1684789;83;25758;-72
2021/03/23 06:29:58;;;;;;;18.25;9.58;;;;;;;2.75;66.15;100514.95;1690779;83;26325;-72
2021/03/23 06:32:48;;;;;;;21.95;11.10;;;;;;;2.75;66.29;100522.22;1689701;82;25395;-72
2021/03/23 06:35:22;;;;;;;17.45;8.90;;;;;;;2.79;66.37;100522.37;1681727;83;26584;-72
2021/03/23 06:37:49;;;;;;;18.60;9.78;;;;;;;2.82;66.44;100526.02;1694530;83;25853;-72
2021/03/23 06:40:20;;;;;;;15.05;9.33;;;;;;;2.83;66.38;100526.83;1687784;82;25390;-72
2021/03/23 06:42:52;;;;;;;20.92;11.10;;;;;;;2.83;66.46;100528.94;1683108;83;26360;-72
2021/03/23 06:45:38;;;;;;;22.80;11.30;;;;;;;2.84;66.54;100525.44;1682977;83;26639;-72
2021/03/23 06:48:30;;;;;;;20.05;9.80;;;;;;;2.86;66.65;100526.16;1681814;83;25655;-71
2021/03/23 06:51:18;;;;;;;21.37;11.73;;;;;;;2.88;66.64;100522.16;1651402;82;26579;-72
2021/03/23 06:53:45;;;;;;;19.67;10.35;;;;;;;2.89;66.82;100526.38;1657840;84;25365;-72
2021/03/23 06:56:28;;;;;;;21.10;10.15;;;;;;;2.94;66.87;100520.89;1654700;85;25830;-72
2021/03/23 06:59:23;;;;;;;19.57;11.10;;;;;;;2.95;66.87;100525.14;1654473;85;26746;-72
2021/03/23 07:01:52;;;;;;;21.23;11.33;;;;;;;2.96;67.04;100528.88;1653936;85;25809;-73
2021/03/23 07:04:31;;;;;;;22.40;11.50;;;;;;;2.95;66.98;100527.72;1655886;84;25908;-73
2021/03/23 07:07:19;;;;;;;20.45;9.98;;;;;;;2.97;67.34;100533.09;1659225;84;25907;-73
2021/03/23 07:09:49;;;;;;;26.10;10.18;;;;;;;3.03;67.36;100529.27;1659144;84;26963;-73
2021/03/23 07:12:17;;;;;;;21.90;10.25;;;;;;;3.08;67.45;100527.16;1661112;84;25719;-72
2021/03/23 07:14:47;;;;;;;19.55;10.23;;;;;;;3.09;67.53;100518.48;1652072;84;25858;-73
2021/03/23 07:17:25;;;;;;;25.27;10.58;;;;;;;3.11;67.60;100526.48;1672673;85;26290;-73
2021/03/23 07:20:02;;;;;;;19.98;9.65;;;;;;;3.13;67.77;100525.06;1678530;83;25315;-73
2021/03/23 07:22:52;;;;;;;15.05;7.40;;;;;;;3.09;67.84;100506.87;1676464;83;26634;-73
2021/03/23 07:25:43;;;;;;;20.80;9.93;;;;;;;3.25;67.77;100524.17;1669692;83;25830;-72
2021/03/23 07:28:32;;;;;;;16.42;8.73;;;;;;;3.27;67.87;100529.20;1677070;83;25829;-72
2021/03/23 07:31:33;;;;;;;19.50;9.23;;;;;;;3.34;68.07;100532.52;1678363;83;26120;-71
2021/03/23 07:34:25;;;;;;;16.32;9.55;;;;;;;3.39;68.05;100540.41;1679299;84;26371;-74
2021/03/23 07:36:59;;;;;;;20.65;10.03;;;;;;;3.42;68.11;100532.42;1675428;83;25865;-72
2021/03/23 07:39:42;;;;;;;15.80;9.30;;;;;;;3.48;68.18;100539.23;1679929;82;25768;-72
2021/03/23 07:42:37;;;;;;;18.48;9.50;;;;;;;3.50;68.20;100537.36;1700079;82;25353;-71
2021/03/23 07:45:26;;;;;;;25.77;12.43;;;;;;;3.56;68.29;100530.91;1703969;82;25735;-70
2021/03/23 07:48:09;;;;;;;24.85;11.68;;;;;;;3.62;68.32;100544.66;1728999;81;25869;-71
2021/03/23 07:50:38;;;;;;;23.98;9.78;;;;;;;3.67;68.31;100540.44;1727713;82;25936;-71
2021/03/23 07:53:34;;;;;;;17.60;9.53;;;;;;;3.71;68.24;100542.69;1727859;81;25723;-71
2021/03/23 07:56:37;;;;;;;17.07;8.08;;;;;;;3.73;68.34;100535.62;1729888;82;25777;-72
2021/03/23 07:59:27;;;;;;;18.42;9.33;;;;;;;3.75;68.47;100536.33;1655362;84;26471;-74
2021/03/23 08:02:01;;;;;;;24.30;9.85;;;;;;;3.78;68.51;100537.38;1655840;84;25783;-70
2021/03/23 08:05:06;;;;;;;16.87;8.48;;;;;;;3.91;68.64;100537.76;1641954;84;26510;-69
2021/03/23 08:07:40;;;;;;;17.25;9.83;;;;;;;3.98;68.38;100534.59;1624145;86;25434;-71
2021/03/23 08:10:36;;;;;;;19.35;9.10;;;;;;;4.07;68.55;100538.70;1624889;85;26463;-71
2021/03/23 08:13:17;;;;;;;15.68;8.83;;;;;;;4.12;68.63;100534.81;1622856;85;25870;-76
2021/03/23 08:16:32;;;;;;;21.93;10.65;;;;;;;4.22;68.63;100532.31;1619877;85;25898;-74
2021/03/23 08:19:36;;;;;;;15.00;8.68;;;;;;;4.24;68.47;100529.15;1595556;87;25751;-75
2021/03/23 08:22:27;;;;;;;16.45;8.78;;;;;;;4.28;68.62;100527.95;1614814;87;25903;-73
2021/03/23 08:25:11;;;;;;;17.80;8.35;;;;;;;4.39;68.62;100523.23;1599063;87;25846;-75
2021/03/23 08:28:17;;;;;;;18.82;9.00;;;;;;;4.45;68.35;100540.88;1592362;89;25941;-74
2021/03/23 08:31:08;;;;;;;18.07;8.45;;;;;;;4.50;68.49;100545.67;1571510;89;25843;-75
2021/03/23 08:34:15;;;;;;;14.63;8.25;;;;;;;4.54;68.33;100556.15;1590065;89;25931;-76
2021/03/23 08:37:07;;;;;;;16.62;8.55;;;;;;;4.60;68.56;100554.36;1637791;86;26033;-76
2021/03/23 08:39:48;;;;;;;17.70;8.98;;;;;;;4.74;68.19;100561.03;1623446;87;25894;-76
2021/03/23 08:42:19;;;;;;;16.67;9.83;;;;;;;4.84;68.42;100562.77;1617410;87;26526;-76
2021/03/23 08:44:57;;;;;;;14.98;8.90;;;;;;;4.94;68.29;100555.09;1640605;86;25898;-75
2021/03/23 08:47:46;;;;;;;17.32;9.70;;;;;;;5.08;68.02;100565.15;1606529;84;25896;-75
2021/03/23 08:50:32;;;;;;;18.15;8.55;;;;;;;5.11;67.08;100571.38;1608862;88;26530;-75
2021/03/23 08:53:04;;;;;;;15.68;8.33;;;;;;;5.13;67.29;100569.97;1614908;87;25402;-76
2021/03/23 08:55:36;;;;;;;22.00;10.00;;;;;;;5.17;67.12;100562.76;1616486;86;26116;-74
2021/03/23 08:58:18;;;;;;;18.37;8.53;;;;;;;5.18;67.02;100568.28;1619619;87;25836;-76
2021/03/23 09:01:00;;;;;;;15.90;8.58;;;;;;;5.24;67.23;100566.50;1614692;87;26040;-76
2021/03/23 09:03:47;;;;;;;14.38;7.85;;;;;;;5.39;67.21;100569.12;1620234;86;25929;-75
2021/03/23 09:06:18;;;;;;;16.55;7.62;;;;;;;5.53;66.79;100567.50;1617098;85;25732;-76
2021/03/23 09:08:55;;;;;;;16.37;8.08;;;;;;;5.63;66.33;100570.64;1648363;85;25764;-76
2021/03/23 09:12:03;;;;;;;14.05;7.92;;;;;;;5.66;65.94;100572.97;1651416;85;26039;-76
2021/03/23 09:14:33;;;;;;;16.15;8.18;;;;;;;5.70;66.55;100560.93;1646253;85;26001;-73
2021/03/23 09:17:04;;;;;;;15.63;8.30;;;;;;;5.85;66.46;100568.37;1648404;82;26256;-73
2021/03/23 09:19:45;;;;;;;19.82;8.60;;;;;;;5.90;66.05;100564.91;1709471;82;26328;-77
2021/03/23 09:22:19;;;;;;;17.45;8.68;;;;;;;5.89;65.96;100569.28;1698182;82;26750;-78
2021/03/23 09:24:46;;;;;;;18.32;8.95;;;;;;;6.01;66.05;100563.55;1683442;82;25670;-78
2021/03/23 09:27:30;;;;;;;16.55;8.65;;;;;;;6.16;66.09;100562.71;1673071;83;25864;-75
2021/03/23 09:29:56;;;;;;;15.85;9.25;;;;;;;6.29;65.85;100570.27;1674347;83;27079;-74
2021/03/23 09:32:27;;;;;;;20.15;9.33;;;;;;;6.41;65.45;100581.73;1682791;83;25715;-74
2021/03/23 09:37:41;;;;;;;15.75;8.00;;;;;;;6.47;64.99;100580.38;1690252;83;25941;-74
2021/03/23 09:40:23;;;;;;;18.57;9.48;;;;;;;6.47;64.94;100574.37;1690143;81;25796;-74
2021/03/23 09:43:09;;;;;;;19.50;8.80;;;;;;;6.54;65.41;100575.45;1674915;82;25709;-77
2021/03/23 09:45:56;;;;;;;12.37;7.75;;;;;;;6.69;64.42;100578.03;1588296;88;25731;-76
2021/03/23 09:48:50;;;;;;;13.72;8.15;;;;;;;6.63;64.18;100581.98;1565672;90;25820;-77
2021/03/23 09:51:48;;;;;;;15.90;8.33;;;;;;;6.66;64.01;100579.11;1566208;90;25468;-75
2021/03/23 09:54:31;;;;;;;16.60;8.35;;;;;;;6.73;64.76;100584.58;1575433;89;25886;-76
2021/03/23 09:57:12;;;;;;;14.47;8.90;;;;;;;6.92;65.10;100588.98;1579513;89;25803;-74
2021/03/23 09:59:49;;;;;;;24.60;10.48;;;;;;;7.00;64.21;100589.13;1565782;90;25847;-72
2021/03/23 10:02:23;;;;;;;17.17;8.80;;;;;;;7.04;64.58;100592.29;1567320;90;25495;-72
2021/03/23 10:04:52;;;;;;;15.78;8.63;;;;;;;7.12;64.26;100587.23;1567958;90;25544;-74
2021/03/23 10:07:35;;;;;;;16.67;8.03;;;;;;;7.26;64.67;100592.49;1570135;90;25842;-75
2021/03/23 10:10:27;;;;;;;15.35;8.35;;;;;;;7.34;63.52;100599.13;1589800;88;25928;-77
2021/03/23 10:12:58;;;;;;;15.50;8.73;;;;;;;7.39;63.80;100595.60;1590039;88;25856;-76
2021/03/23 10:15:39;;;;;;;16.82;8.75;;;;;;;7.58;63.29;100596.06;1589620;89;25844;-76
2021/03/23 10:18:25;;;;;;;13.98;7.87;;;;;;;7.72;63.95;100602.14;1589254;88;26133;-76
2021/03/23 10:21:11;;;;;;;21.70;7.83;;;;;;;7.77;62.98;100601.25;1589108;88;26024;-77
2021/03/23 10:23:51;;;;;;;13.90;7.40;;;;;;;7.83;62.18;100603.77;1689182;80;25796;-76
2021/03/23 10:26:19;;;;;;;14.58;7.42;;;;;;;7.83;61.28;100601.62;1693671;83;25905;-74
2021/03/23 10:28:48;;;;;;;13.95;6.75;;;;;;;7.79;60.99;100610.20;1695219;82;25558;-72
2021/03/23 10:31:31;;;;;;;12.95;7.30;;;;;;;7.70;61.09;100609.27;1696068;81;25844;-75
2021/03/23 10:34:30;;;;;;;13.62;7.12;;;;;;;7.78;62.44;100597.67;1696308;83;25690;-76
2021/03/23 10:37:07;;;;;;;14.15;6.78;;;;;;;7.82;62.14;100600.80;1695896;83;25860;-76
2021/03/23 10:39:45;;;;;;;14.65;7.80;;;;;;;7.90;62.30;100602.70;1693968;81;25776;-75
2021/03/23 10:42:28;;;;;;;13.72;7.22;;;;;;;7.98;62.48;100604.12;1705637;82;25755;-75
2021/03/23 10:45:17;;;;;;;13.60;7.53;;;;;;;8.03;61.81;100598.02;1711267;82;25725;-77
2021/03/23 10:47:45;;;;;;;12.37;7.10;;;;;;;8.07;61.28;100599.34;1711131;82;26326;-76
2021/03/23 10:50:26;;;;;;;16.35;7.92;;;;;;;8.10;61.17;100608.66;1712295;80;26220;-76
2021/03/23 10:52:56;;;;;;;14.65;7.80;;;;;;;8.09;61.51;100605.23;1710702;82;26499;-76
2021/03/23 10:55:33;;;;;;;16.60;8.48;;;;;;;8.14;62.09;100602.22;1707185;82;26350;-76
2021/03/23 10:58:22;;;;;;;18.12;7.85;;;;;;;8.16;61.33;100606.32;1707380;82;25823;-75
2021/03/23 11:01:13;;;;;;;17.00;6.80;;;;;;;8.19;61.89;100609.13;1707506;81;26448;-76
2021/03/23 11:03:42;;;;;;;14.43;7.72;;;;;;;8.24;61.69;100606.91;1698744;83;25949;-76
2021/03/23 11:06:32;;;;;;;16.73;6.85;;;;;;;8.33;60.19;100614.34;1709613;82;26267;-76
2021/03/23 11:09:00;;;;;;;23.05;10.85;;;;;;;8.33;61.06;100614.34;1710479;82;25821;-76
2021/03/23 11:11:27;;;;;;;14.05;7.72;;;;;;;8.42;61.22;100616.09;1716744;82;25781;-76
2021/03/23 11:13:53;;;;;;;13.75;7.15;;;;;;;8.48;60.60;100616.81;1665233;85;25631;-75
2021/03/23 11:16:25;;;;;;;17.25;8.10;;;;;;;8.51;60.07;100617.85;1718576;82;25778;-75
2021/03/23 11:18:53;;;;;;;13.38;7.83;;;;;;;8.54;60.24;100611.50;1724972;80;26452;-77
2021/03/23 11:21:19;;;;;;;14.45;7.40;;;;;;;8.59;60.48;100617.95;1684392;82;25371;-75
2021/03/23 11:23:51;;;;;;;12.78;6.83;;;;;;;8.58;59.69;100612.38;1703352;83;25791;-75
2021/03/23 11:26:25;;;;;;;14.15;7.40;;;;;;;8.62;59.59;100612.90;1681183;83;25773;-74
2021/03/23 11:28:57;;;;;;;14.83;7.58;;;;;;;8.60;59.11;100616.16;1700901;83;26004;-74
2021/03/23 11:31:27;;;;;;;12.33;6.58;;;;;;;8.56;59.17;100625.21;1700177;82;25795;-76
2021/03/23 11:33:55;;;;;;;13.65;6.83;;;;;;;8.56;59.65;100625.21;1701566;81;25780;-74
2021/03/23 11:36:23;;;;;;;15.28;7.35;;;;;;;8.55;58.88;100623.58;1711984;82;25905;-75
2021/03/23 11:38:51;;;;;;;13.50;7.45;;;;;;;8.47;58.47;100626.91;1709314;83;25673;-74
2021/03/23 11:41:29;;;;;;;15.55;7.92;;;;;;;8.34;58.97;100623.78;1768718;79;25932;-75
2021/03/23 11:44:06;;;;;;;27.10;12.60;;;;;;;8.31;59.72;100624.88;1769138;80;26191;-74
2021/03/23 11:47:10;;;;;;;17.25;8.58;;;;;;;8.35;59.69;100629.34;1759492;80;25740;-77
2021/03/23 11:50:07;;;;;;;24.85;13.53;;;;;;;8.34;59.29;100627.69;1767711;79;25758;-77
2021/03/23 11:52:36;;;;;;;14.98;8.88;;;;;;;8.32;59.75;100627.00;1779048;79;26558;-76
2021/03/23 11:55:09;;;;;;;12.70;7.67;;;;;;;8.32;60.17;100629.61;1761256;79;25438;-77
2021/03/23 11:57:38;;;;;;;17.17;8.05;;;;;;;8.31;60.19;100627.98;1750659;80;25720;-78
2021/03/23 12:00:07;;;;;;;24.82;11.10;;;;;;;8.28;59.52;100625.66;1745237;80;25781;-71